Time;durP1;ratioP1;P1;durP2;ratioP2;P2;SDS_P1;SDS_P2;PMS_P1;PMS_P2;Temp;Humidity;BMP_temperature;BMP_pressure;BME280_temperature;BME280_humidity;BME280_pressure;Samples;Min_cycle;Max_cycle;Signal;HPM_P1;HPM_P2
2023/04/07 00:03:39;;;;;;;3.03;2.40;;;;;;;;;;5050371;28;20234;-28
2023/04/07 00:06:23;;;;;;;2.67;2.33;;;;;;;;;;5042683;28;20238;-27
2023/04/07 00:17:51;;;;;;;3.13;2.67;;;;;;;;;;5053249;28;20221;-28
2023/04/07 00:26:55;;;;;;;3.90;2.80;;;;;;;;;;5162811;22;20233;-28
2023/04/07 00:29:58;;;;;;;2.90;2.67;;;;;;;;;;5064032;28;20202;-26
2023/04/07 00:32:42;;;;;;;2.90;2.60;;;;;;;;;;5065040;28;20244;-27
2023/04/07 00:35:31;;;;;;;2.47;2.23;;;;;;;;;;5061603;28;20205;-28
2023/04/07 00:38:18;;;;;;;3.00;2.73;;;;;;;;;;5055991;28;20209;-28
2023/04/07 00:43:34;;;;;;;3.50;2.70;;;;;;;;;;5183000;22;20238;-29
2023/04/07 00:49:16;;;;;;;3.17;2.87;;;;;;;;;;6109036;22;20168;-27
2023/04/07 00:51:58;;;;;;;3.50;3.00;;;;;;;;;;5055206;28;20238;-25
2023/04/07 00:54:41;;;;;;;5.37;2.50;;;;;;;;;;5036489;28;20230;-27
2023/04/07 00:57:30;;;;;;;3.23;2.97;;;;;;;;;;5035962;28;20293;-25
2023/04/07 01:00:22;;;;;;;3.57;2.90;;;;;;;;;;5027645;28;20198;-26
2023/04/07 01:03:19;;;;;;;3.27;2.63;;;;;;;;;;5025211;28;20227;-28
2023/04/07 01:06:03;;;;;;;3.20;2.90;;;;;;;;;;5035589;28;20229;-28
2023/04/07 01:11:54;;;;;;;2.63;2.43;;;;;;;;;;5021217;28;20238;-27
2023/04/07 01:14:51;;;;;;;3.00;2.57;;;;;;;;;;5016740;28;20227;-27
2023/04/07 01:20:26;;;;;;;3.70;2.53;;;;;;;;;;5045664;28;20206;-27
2023/04/07 01:23:09;;;;;;;3.50;2.73;;;;;;;;;;5054177;28;20230;-28
2023/04/07 01:26:11;;;;;;;5.50;3.27;;;;;;;;;;5025528;28;20291;-28
2023/04/07 01:29:13;;;;;;;3.03;2.80;;;;;;;;;;5027544;28;20280;-26
2023/04/07 01:32:04;;;;;;;3.63;3.20;;;;;;;;;;5012163;28;20242;-26
2023/04/07 01:45:24;;;;;;;3.57;3.13;;;;;;;;;;5051172;28;20240;-25
2023/04/07 01:48:06;;;;;;;4.60;3.23;;;;;;;;;;5042289;28;20207;-27
2023/04/07 01:50:48;;;;;;;5.40;3.80;;;;;;;;;;5049697;28;20221;-27
2023/04/07 01:53:37;;;;;;;4.53;3.67;;;;;;;;;;5053999;28;20226;-28
2023/04/07 01:56:22;;;;;;;3.43;3.07;;;;;;;;;;5046832;28;20222;-28
2023/04/07 01:59:06;;;;;;;4.90;3.67;;;;;;;;;;5303498;22;20255;-28
2023/04/07 02:01:48;;;;;;;3.53;3.00;;;;;;;;;;5040701;28;20221;-25
2023/04/07 02:04:32;;;;;;;5.80;3.70;;;;;;;;;;5025951;28;20218;-28
2023/04/07 02:13:08;;;;;;;3.90;3.43;;;;;;;;;;5032472;28;20222;-28
2023/04/07 02:15:44;;;;;;;6.33;3.50;;;;;;;;;;5034774;28;20214;-27
2023/04/07 02:18:18;;;;;;;4.30;3.57;;;;;;;;;;5050525;28;20201;-26
2023/04/07 02:20:54;;;;;;;5.13;3.97;;;;;;;;;;5045121;28;20289;-26
2023/04/07 02:23:26;;;;;;;3.67;3.07;;;;;;;;;;5048749;28;20229;-28
2023/04/07 02:26:05;;;;;;;4.83;3.57;;;;;;;;;;5045200;28;20206;-28
2023/04/07 02:28:36;;;;;;;4.93;3.37;;;;;;;;;;5035808;28;20203;-27
2023/04/07 02:31:16;;;;;;;5.77;3.97;;;;;;;;;;5033017;28;20219;-26
2023/04/07 02:33:56;;;;;;;3.33;2.97;;;;;;;;;;5053385;28;20283;-25
2023/04/07 02:36:34;;;;;;;5.90;4.23;;;;;;;;;;5037593;28;20210;-26
2023/04/07 02:39:11;;;;;;;5.27;3.57;;;;;;;;;;5038613;28;20253;-27
2023/04/07 02:41:45;;;;;;;5.70;4.00;;;;;;;;;;5053140;28;20206;-25
2023/04/07 02:44:19;;;;;;;4.67;3.87;;;;;;;;;;5038431;28;20226;-27
2023/04/07 02:46:58;;;;;;;5.63;4.27;;;;;;;;;;5047865;28;20202;-29
2023/04/07 02:49:40;;;;;;;4.40;3.67;;;;;;;;;;5784604;22;20232;-26
2023/04/07 02:52:23;;;;;;;4.67;3.67;;;;;;;;;;5072281;28;20311;-25
2023/04/07 02:55:27;;;;;;;7.70;4.50;;;;;;;;;;5036522;28;20216;-28
2023/04/07 02:58:00;;;;;;;5.83;3.97;;;;;;;;;;5033424;28;20198;-28
2023/04/07 03:00:47;;;;;;;4.93;3.50;;;;;;;;;;5035212;28;20198;-27
2023/04/07 03:03:38;;;;;;;6.50;4.53;;;;;;;;;;5323024;22;20274;-26
2023/04/07 03:06:12;;;;;;;4.57;4.03;;;;;;;;;;5052916;28;20213;-29
2023/04/07 03:08:50;;;;;;;4.67;4.13;;;;;;;;;;5050189;28;20670;-25
2023/04/07 03:11:28;;;;;;;4.83;4.33;;;;;;;;;;5048471;28;20232;-27
2023/04/07 03:16:49;;;;;;;5.17;3.90;;;;;;;;;;5030080;28;20218;-28
2023/04/07 03:19:31;;;;;;;7.60;4.57;;;;;;;;;;5021720;28;20234;-28
2023/04/07 03:21:59;;;;;;;5.57;4.40;;;;;;;;;;5124269;22;20302;-24
2023/04/07 03:24:27;;;;;;;5.83;4.73;;;;;;;;;;5049978;28;20289;-28
2023/04/07 03:26:54;;;;;;;6.53;4.60;;;;;;;;;;5039892;28;20203;-26
2023/04/07 03:29:22;;;;;;;6.83;5.00;;;;;;;;;;5048315;28;20244;-29
2023/04/07 03:31:49;;;;;;;4.93;3.87;;;;;;;;;;5035435;28;20214;-26
2023/04/07 03:34:16;;;;;;;4.30;3.73;;;;;;;;;;5032336;28;20230;-27
2023/04/07 03:36:43;;;;;;;7.77;4.90;;;;;;;;;;5029416;28;20201;-26
2023/04/07 03:39:10;;;;;;;4.57;3.73;;;;;;;;;;5029775;28;20210;-29
2023/04/07 03:41:39;;;;;;;4.97;4.47;;;;;;;;;;5032280;28;20210;-26
2023/04/07 03:44:06;;;;;;;7.73;4.87;;;;;;;;;;5043025;28;20218;-28
2023/04/07 03:46:33;;;;;;;5.13;4.37;;;;;;;;;;5033740;28;20241;-29
2023/04/07 03:49:01;;;;;;;5.13;4.63;;;;;;;;;;5031444;28;20211;-28
2023/04/07 03:51:28;;;;;;;6.17;4.70;;;;;;;;;;5028674;28;20222;-28
2023/04/07 03:53:55;;;;;;;7.37;5.60;;;;;;;;;;5029410;28;20226;-28
2023/04/07 03:56:23;;;;;;;8.67;5.37;;;;;;;;;;5043117;28;20234;-30
2023/04/07 03:58:52;;;;;;;5.97;5.20;;;;;;;;;;5036615;28;20214;-29
2023/04/07 04:01:19;;;;;;;5.93;4.90;;;;;;;;;;5036313;28;20212;-25
2023/04/07 04:03:46;;;;;;;5.90;4.83;;;;;;;;;;5048385;28;20232;-30
2023/04/07 04:06:13;;;;;;;7.60;5.90;;;;;;;;;;5049034;28;20206;-25
2023/04/07 04:08:40;;;;;;;7.47;5.63;;;;;;;;;;5043451;28;20207;-28
2023/04/07 04:11:07;;;;;;;6.50;4.77;;;;;;;;;;5034475;28;20222;-29
2023/04/07 04:13:37;;;;;;;5.93;4.77;;;;;;;;;;5041278;28;20226;-26
2023/04/07 04:16:06;;;;;;;6.97;5.00;;;;;;;;;;5045509;28;20206;-26
2023/04/07 04:18:33;;;;;;;6.80;5.33;;;;;;;;;;5046028;28;20213;-26
2023/04/07 04:21:01;;;;;;;6.23;4.83;;;;;;;;;;5035602;28;20221;-29
2023/04/07 04:23:28;;;;;;;5.47;4.67;;;;;;;;;;5028964;28;20227;-27
2023/04/07 04:25:55;;;;;;;7.77;5.27;;;;;;;;;;5041529;28;20209;-30
2023/04/07 04:28:22;;;;;;;9.27;5.57;;;;;;;;;;5044471;28;20210;-27
2023/04/07 04:30:50;;;;;;;5.67;4.47;;;;;;;;;;5042019;28;20210;-28
2023/04/07 04:33:18;;;;;;;6.70;5.07;;;;;;;;;;5035361;28;20219;-28
2023/04/07 04:35:45;;;;;;;6.50;5.13;;;;;;;;;;5047904;28;20575;-28
2023/04/07 04:38:13;;;;;;;5.10;4.37;;;;;;;;;;5045516;28;20218;-26
2023/04/07 04:40:40;;;;;;;5.40;4.80;;;;;;;;;;5037950;28;20301;-29
2023/04/07 04:43:08;;;;;;;6.67;5.37;;;;;;;;;;5034162;28;20215;-26
2023/04/07 04:45:35;;;;;;;7.13;5.03;;;;;;;;;;5028144;28;20206;-28
2023/04/07 04:48:02;;;;;;;6.37;5.13;;;;;;;;;;5034297;28;20214;-27
2023/04/07 04:50:39;;;;;;;5.63;3.83;;;;;;;;;;5041342;28;20269;-25
2023/04/07 04:53:07;;;;;;;6.77;5.37;;;;;;;;;;5053141;28;20225;-25
2023/04/07 04:55:34;;;;;;;6.10;5.00;;;;;;;;;;5043518;28;20207;-28
2023/04/07 04:58:01;;;;;;;6.90;5.13;;;;;;;;;;5038863;28;20210;-27
2023/04/07 05:00:28;;;;;;;8.23;6.30;;;;;;;;;;5047667;28;20202;-28
2023/04/07 05:02:55;;;;;;;7.70;5.10;;;;;;;;;;5041615;28;20330;-28
2023/04/07 05:05:23;;;;;;;6.27;5.07;;;;;;;;;;5043603;28;20203;-27
2023/04/07 05:07:51;;;;;;;5.43;4.30;;;;;;;;;;5031722;28;20217;-27
2023/04/07 05:10:18;;;;;;;8.87;6.57;;;;;;;;;;5036486;28;20213;-26
2023/04/07 05:12:45;;;;;;;7.57;5.57;;;;;;;;;;5042637;28;20240;-26
2023/04/07 05:15:14;;;;;;;7.97;5.70;;;;;;;;;;5049385;28;20205;-29
2023/04/07 05:17:41;;;;;;;6.80;5.40;;;;;;;;;;5048776;28;20201;-28
2023/04/07 05:20:10;;;;;;;6.97;5.93;;;;;;;;;;5037658;28;20281;-27
2023/04/07 05:22:37;;;;;;;8.30;5.53;;;;;;;;;;5051469;28;20301;-26
2023/04/07 05:25:06;;;;;;;8.03;5.80;;;;;;;;;;5048588;28;20301;-29
2023/04/07 05:27:33;;;;;;;7.00;6.10;;;;;;;;;;5042772;28;20209;-28
2023/04/07 05:30:01;;;;;;;8.53;5.43;;;;;;;;;;5039878;28;20209;-27
2023/04/07 05:32:29;;;;;;;9.67;6.60;;;;;;;;;;5036539;28;20219;-28
2023/04/07 05:34:56;;;;;;;10.40;6.60;;;;;;;;;;5038240;28;20210;-27
2023/04/07 05:37:23;;;;;;;7.57;5.23;;;;;;;;;;5054187;28;20353;-27
2023/04/07 05:39:50;;;;;;;7.43;6.20;;;;;;;;;;5047683;28;20206;-26
2023/04/07 05:42:19;;;;;;;8.93;6.50;;;;;;;;;;5040532;28;20202;-26
2023/04/07 05:44:46;;;;;;;8.30;5.87;;;;;;;;;;5052819;28;20216;-28
2023/04/07 05:47:16;;;;;;;9.40;5.90;;;;;;;;;;5044022;28;20212;-25
2023/04/07 05:49:50;;;;;;;8.77;6.20;;;;;;;;;;5041598;28;20209;-26
2023/04/07 05:52:18;;;;;;;9.13;6.57;;;;;;;;;;5037190;28;20207;-28
2023/04/07 05:54:46;;;;;;;6.63;5.90;;;;;;;;;;5049010;28;20199;-27
2023/04/07 05:57:13;;;;;;;6.73;5.87;;;;;;;;;;5044115;28;20202;-28
2023/04/07 05:59:41;;;;;;;7.23;6.27;;;;;;;;;;5036249;28;20279;-26
2023/04/07 06:02:09;;;;;;;7.87;5.13;;;;;;;;;;5038104;28;20205;-24
2023/04/07 06:04:38;;;;;;;7.03;5.47;;;;;;;;;;5038489;28;20249;-27
2023/04/07 06:07:05;;;;;;;7.93;5.67;;;;;;;;;;5052681;28;20198;-27
2023/04/07 06:09:32;;;;;;;6.47;5.10;;;;;;;;;;5046182;28;20209;-25
2023/04/07 06:12:00;;;;;;;6.63;5.30;;;;;;;;;;5040289;28;20228;-24
2023/04/07 06:14:27;;;;;;;6.07;5.30;;;;;;;;;;5047578;28;20318;-26
2023/04/07 06:16:56;;;;;;;7.17;5.70;;;;;;;;;;5035941;28;20203;-26
2023/04/07 06:19:23;;;;;;;7.67;5.87;;;;;;;;;;5041090;28;20210;-25
2023/04/07 06:21:50;;;;;;;7.20;6.07;;;;;;;;;;5043210;28;20221;-26
2023/04/07 06:24:17;;;;;;;8.17;6.43;;;;;;;;;;5045928;28;20228;-27
2023/04/07 06:26:45;;;;;;;6.70;5.30;;;;;;;;;;5037580;28;20231;-27
2023/04/07 06:29:12;;;;;;;11.93;6.30;;;;;;;;;;5049409;28;20660;-25
2023/04/07 06:31:39;;;;;;;9.63;5.40;;;;;;;;;;5044213;28;20666;-27
2023/04/07 06:34:08;;;;;;;8.63;6.20;;;;;;;;;;5051107;28;20236;-27
2023/04/07 06:36:36;;;;;;;10.20;7.03;;;;;;;;;;5048671;28;20203;-26
2023/04/07 06:39:04;;;;;;;10.07;7.03;;;;;;;;;;5035570;28;20204;-26
2023/04/07 06:41:31;;;;;;;7.00;5.60;;;;;;;;;;5047316;28;20256;-27
2023/04/07 06:43:58;;;;;;;8.10;6.13;;;;;;;;;;5044759;28;20249;-25
2023/04/07 06:46:26;;;;;;;8.50;6.30;;;;;;;;;;5033256;28;20211;-27
2023/04/07 06:48:53;;;;;;;9.63;6.57;;;;;;;;;;5038031;28;20214;-26
2023/04/07 06:51:21;;;;;;;9.27;6.60;;;;;;;;;;5040731;28;20201;-27
2023/04/07 06:53:51;;;;;;;9.43;6.30;;;;;;;;;;5046730;28;20232;-24
2023/04/07 06:56:18;;;;;;;12.00;7.37;;;;;;;;;;5040262;28;20201;-29
2023/04/07 06:58:45;;;;;;;10.07;6.80;;;;;;;;;;5034764;28;20202;-27
2023/04/07 07:01:13;;;;;;;9.93;6.80;;;;;;;;;;5037417;28;20231;-25
2023/04/07 07:03:40;;;;;;;9.33;6.50;;;;;;;;;;5044231;28;20314;-25
2023/04/07 07:06:07;;;;;;;10.17;6.50;;;;;;;;;;5041342;28;20201;-28
2023/04/07 07:08:35;;;;;;;8.80;6.23;;;;;;;;;;5031810;28;20209;-26
2023/04/07 07:11:03;;;;;;;11.80;7.40;;;;;;;;;;5038066;28;20206;-29
2023/04/07 07:13:35;;;;;;;10.33;7.40;;;;;;;;;;5033157;28;20233;-29
2023/04/07 07:16:02;;;;;;;10.30;8.13;;;;;;;;;;5036373;28;20203;-28
2023/04/07 07:18:29;;;;;;;10.63;8.03;;;;;;;;;;5043258;28;20202;-27
2023/04/07 07:20:56;;;;;;;10.37;8.23;;;;;;;;;;5042944;28;20210;-26
2023/04/07 07:23:24;;;;;;;10.93;9.77;;;;;;;;;;5048580;28;20222;-27
2023/04/07 07:25:52;;;;;;;10.77;9.17;;;;;;;;;;5040355;28;20202;-27
2023/04/07 07:28:20;;;;;;;11.23;8.90;;;;;;;;;;5039915;28;20194;-25
2023/04/07 07:30:48;;;;;;;8.97;6.80;;;;;;;;;;5044515;28;20229;-26
2023/04/07 07:33:15;;;;;;;9.50;8.43;;;;;;;;;;5034084;28;20222;-29
2023/04/07 07:35:42;;;;;;;10.40;7.27;;;;;;;;;;5043241;28;20202;-30
2023/04/07 07:38:09;;;;;;;10.00;7.33;;;;;;;;;;5052290;28;20212;-26
2023/04/07 07:40:36;;;;;;;9.20;7.47;;;;;;;;;;5038001;28;20210;-26
2023/04/07 07:43:05;;;;;;;10.63;8.17;;;;;;;;;;5051337;28;20304;-27
2023/04/07 07:45:33;;;;;;;10.73;7.63;;;;;;;;;;5043050;28;20256;-26
2023/04/07 07:48:00;;;;;;;8.90;7.17;;;;;;;;;;5035683;28;20535;-26
2023/04/07 07:50:27;;;;;;;7.30;6.50;;;;;;;;;;5032900;28;20206;-29
2023/04/07 07:52:54;;;;;;;8.53;7.23;;;;;;;;;;5032010;28;20227;-29
2023/04/07 07:55:21;;;;;;;8.90;7.10;;;;;;;;;;5034287;28;20217;-28
2023/04/07 07:57:48;;;;;;;9.43;6.33;;;;;;;;;;5040001;28;20213;-31
2023/04/07 08:00:17;;;;;;;8.60;6.57;;;;;;;;;;5030303;28;20212;-27
2023/04/07 08:02:44;;;;;;;7.40;6.60;;;;;;;;;;5042867;28;20232;-27
2023/04/07 08:05:11;;;;;;;9.80;7.10;;;;;;;;;;5045183;28;20209;-26
2023/04/07 08:07:38;;;;;;;7.33;6.50;;;;;;;;;;5051494;28;20225;-29
2023/04/07 08:10:06;;;;;;;7.40;6.70;;;;;;;;;;5041499;28;20205;-26
2023/04/07 08:12:33;;;;;;;7.97;6.07;;;;;;;;;;5042267;28;20240;-27
2023/04/07 08:15:01;;;;;;;9.17;7.00;;;;;;;;;;5036059;28;20198;-29
2023/04/07 08:17:29;;;;;;;8.00;6.63;;;;;;;;;;5033645;28;20242;-30
2023/04/07 08:19:57;;;;;;;9.50;6.93;;;;;;;;;;5045384;28;20198;-26
2023/04/07 08:22:24;;;;;;;6.93;6.10;;;;;;;;;;5039242;28;20202;-28
2023/04/07 08:24:51;;;;;;;7.73;5.97;;;;;;;;;;5049182;28;20294;-28
2023/04/07 08:27:20;;;;;;;5.53;4.93;;;;;;;;;;5034868;28;20207;-28
2023/04/07 08:29:47;;;;;;;6.43;5.30;;;;;;;;;;5054248;28;20209;-28
2023/04/07 08:32:14;;;;;;;6.43;5.40;;;;;;;;;;5044018;28;20202;-28
2023/04/07 08:34:43;;;;;;;6.67;4.83;;;;;;;;;;5051662;28;20225;-30
2023/04/07 08:37:11;;;;;;;5.33;4.83;;;;;;;;;;5056140;28;20297;-27
2023/04/07 08:39:38;;;;;;;5.60;4.53;;;;;;;;;;5049477;28;20210;-26
2023/04/07 08:42:05;;;;;;;8.03;5.03;;;;;;;;;;5043129;28;20288;-28
2023/04/07 08:44:32;;;;;;;7.40;4.50;;;;;;;;;;5035146;28;20214;-28
2023/04/07 08:47:01;;;;;;;4.70;4.20;;;;;;;;;;5037271;28;20195;-29
2023/04/07 08:49:29;;;;;;;6.10;4.33;;;;;;;;;;5042766;28;20214;-30
2023/04/07 08:52:00;;;;;;;5.23;4.73;;;;;;;;;;5035080;28;20203;-30
2023/04/07 08:54:28;;;;;;;5.03;4.37;;;;;;;;;;5035167;28;20238;-27
2023/04/07 08:56:55;;;;;;;4.57;4.00;;;;;;;;;;5043007;28;20216;-30
2023/04/07 08:59:25;;;;;;;5.40;4.50;;;;;;;;;;5034951;28;20214;-27
2023/04/07 09:01:53;;;;;;;5.30;4.20;;;;;;;;;;5037905;28;20228;-31
2023/04/07 09:04:21;;;;;;;4.83;3.80;;;;;;;;;;5052286;28;20214;-27
2023/04/07 09:06:48;;;;;;;7.30;4.30;;;;;;;;;;5045259;28;20576;-28
2023/04/07 09:09:17;;;;;;;6.10;4.70;;;;;;;;;;5053478;28;20214;-26
2023/04/07 09:11:44;;;;;;;6.27;4.40;;;;;;;;;;5048456;28;20212;-26
2023/04/07 09:14:11;;;;;;;6.33;4.77;;;;;;;;;;5033118;28;20285;-29
2023/04/07 09:16:41;;;;;;;5.33;4.40;;;;;;;;;;5043488;28;20221;-28
2023/04/07 09:19:08;;;;;;;7.57;4.47;;;;;;;;;;5054246;28;20198;-27
2023/04/07 09:21:48;;;;;;;4.43;3.93;;;;;;;;;;5053937;28;20210;-27
2023/04/07 09:24:23;;;;;;;5.30;4.60;;;;;;;;;;5053354;28;20225;-28
2023/04/07 09:26:50;;;;;;;6.93;5.13;;;;;;;;;;5042105;28;20211;-27
2023/04/07 09:29:20;;;;;;;4.80;4.30;;;;;;;;;;5045414;28;20196;-28
2023/04/07 09:31:48;;;;;;;4.30;3.80;;;;;;;;;;5041012;28;20209;-30
2023/04/07 09:34:25;;;;;;;5.40;4.50;;;;;;;;;;5033301;28;20226;-28
2023/04/07 09:36:53;;;;;;;6.80;4.73;;;;;;;;;;5034492;28;20537;-28
2023/04/07 09:39:20;;;;;;;6.67;4.50;;;;;;;;;;5034137;28;20208;-28
2023/04/07 09:41:48;;;;;;;7.10;4.47;;;;;;;;;;5044609;28;20202;-28
2023/04/07 09:44:15;;;;;;;5.90;4.47;;;;;;;;;;5038594;28;20309;-28
2023/04/07 10:01:15;;;;;;;7.30;5.10;;;;;;;;;;5080716;22;20252;-35
2023/04/07 10:04:01;;;;;;;5.80;4.50;;;;;;;;;;5335558;22;20237;-27
2023/04/07 10:15:07;;;;;;;4.70;4.10;;;;;;;;;;5035707;28;20256;-35
2023/04/07 10:17:58;;;;;;;4.00;3.60;;;;;;;;;;5047279;28;20202;-34
2023/04/07 10:23:55;;;;;;;4.00;3.07;;;;;;;;;;5043243;28;20228;-36
2023/04/07 10:26:49;;;;;;;5.47;3.67;;;;;;;;;;5049303;28;20210;-35
2023/04/07 10:29:33;;;;;;;4.47;3.30;;;;;;;;;;5049578;28;20202;-38
2023/04/07 10:41:33;;;;;;;;;;;;;;;;;;;;;
2023/04/07 10:44:36;;;;;;;3.63;2.60;;;;;;;;;;5044175;28;20254;-30
2023/04/07 10:47:45;;;;;;;5.73;3.00;;;;;;;;;;5044617;28;20202;-32
2023/04/07 11:16:02;;;;;;;5.37;2.97;;;;;;;;;;5045871;28;20230;-34
2023/04/07 11:19:00;;;;;;;5.17;3.10;;;;;;;;;;5048716;28;20209;-36
2023/04/07 11:21:47;;;;;;;4.03;3.17;;;;;;;;;;5036110;28;20221;-38
2023/04/07 11:30:16;;;;;;;5.77;3.37;;;;;;;;;;5045455;28;20206;-35
2023/04/07 11:33:11;;;;;;;3.57;2.97;;;;;;;;;;5049328;28;21245;-38
2023/04/07 11:35:54;;;;;;;5.37;3.37;;;;;;;;;;5052555;28;20206;-33
2023/04/07 11:41:40;;;;;;;3.67;2.70;;;;;;;;;;5035267;28;20206;-40
2023/04/07 11:44:19;;;;;;;7.13;3.13;;;;;;;;;;5045111;28;20214;-35
2023/04/07 11:47:08;;;;;;;3.37;2.87;;;;;;;;;;5039498;28;20233;-35
2023/04/07 11:50:00;;;;;;;4.00;3.30;;;;;;;;;;5049773;28;20212;-40
2023/04/07 11:52:35;;;;;;;4.23;3.20;;;;;;;;;;5040703;28;20195;-38
2023/04/07 11:55:20;;;;;;;3.93;3.20;;;;;;;;;;5037665;28;20246;-36
2023/04/07 11:58:06;;;;;;;2.57;2.37;;;;;;;;;;5036109;28;20203;-38
2023/04/07 12:01:03;;;;;;;4.53;3.23;;;;;;;;;;5039685;28;20206;-40
2023/04/07 12:03:38;;;;;;;3.33;2.93;;;;;;;;;;5043245;28;20317;-36
2023/04/07 12:06:08;;;;;;;4.60;2.97;;;;;;;;;;5047441;28;20209;-36
2023/04/07 12:08:51;;;;;;;3.30;2.70;;;;;;;;;;5054808;28;20411;-38
2023/04/07 12:11:38;;;;;;;4.70;3.50;;;;;;;;;;5044017;28;20206;-36
2023/04/07 12:14:17;;;;;;;3.70;2.70;;;;;;;;;;5046638;28;20226;-36
2023/04/07 12:16:58;;;;;;;2.73;2.37;;;;;;;;;;5051713;28;20271;-38
2023/04/07 12:22:11;;;;;;;5.60;3.10;;;;;;;;;;5088168;28;20228;-29
2023/04/07 12:25:01;;;;;;;3.83;2.53;;;;;;;;;;5098754;28;20231;-29
2023/04/07 12:27:44;;;;;;;3.40;2.50;;;;;;;;;;5105112;28;20201;-27
2023/04/07 12:30:32;;;;;;;3.37;2.20;;;;;;;;;;5113482;28;20199;-26
2023/04/07 12:33:23;;;;;;;4.70;2.60;;;;;;;;;;5104093;28;20356;-27
2023/04/07 12:36:01;;;;;;;2.60;2.40;;;;;;;;;;5105523;28;20209;-27
2023/04/07 12:46:59;;;;;;;2.10;1.90;;;;;;;;;;5103079;22;20252;-29
2023/04/07 12:49:42;;;;;;;3.37;2.03;;;;;;;;;;5075660;28;20276;-26
2023/04/07 12:52:19;;;;;;;3.13;2.00;;;;;;;;;;5075681;28;20197;-29
2023/04/07 12:54:52;;;;;;;3.40;2.03;;;;;;;;;;5049670;28;20288;-27
2023/04/07 12:57:33;;;;;;;2.93;2.03;;;;;;;;;;5058703;28;20229;-27
2023/04/07 13:00:10;;;;;;;4.03;2.03;;;;;;;;;;5034613;28;20235;-28
2023/04/07 13:02:54;;;;;;;4.30;1.97;;;;;;;;;;5052595;28;20222;-26
2023/04/07 13:05:31;;;;;;;4.60;2.07;;;;;;;;;;5051292;28;20202;-26
2023/04/07 13:08:21;;;;;;;3.10;1.93;;;;;;;;;;5054555;28;20232;-27
2023/04/07 13:10:55;;;;;;;3.53;1.90;;;;;;;;;;5052938;28;20281;-29
2023/04/07 13:13:41;;;;;;;3.70;2.00;;;;;;;;;;5054801;28;20272;-27
2023/04/07 13:16:22;;;;;;;4.70;2.43;;;;;;;;;;5037665;28;20206;-27
2023/04/07 13:18:51;;;;;;;6.80;3.30;;;;;;;;;;5040349;28;20239;-27
2023/04/07 13:21:31;;;;;;;4.43;3.57;;;;;;;;;;5054937;28;20216;-28
2023/04/07 13:24:03;;;;;;;5.03;3.00;;;;;;;;;;5095354;22;20232;-27
2023/04/07 13:26:57;;;;;;;6.23;3.37;;;;;;;;;;5093946;28;20201;-29
2023/04/07 13:34:53;;;;;;;4.00;2.23;;;;;;;;;;5077633;28;20301;-27
2023/04/07 13:37:27;;;;;;;2.47;2.27;;;;;;;;;;5077231;28;20210;-27
2023/04/07 13:40:19;;;;;;;5.40;2.20;;;;;;;;;;5073483;28;20233;-28
2023/04/07 13:43:00;;;;;;;3.70;2.50;;;;;;;;;;5084416;28;20279;-29
2023/04/07 13:45:30;;;;;;;3.87;2.80;;;;;;;;;;5078625;28;20202;-26
2023/04/07 13:48:14;;;;;;;4.90;2.77;;;;;;;;;;5074372;28;20201;-29
2023/04/07 13:53:55;;;;;;;2.50;1.73;;;;;;;;;;5068807;28;20226;-29
2023/04/07 13:56:41;;;;;;;3.07;2.03;;;;;;;;;;5076088;28;20264;-29
2023/04/07 13:59:30;;;;;;;3.63;2.00;;;;;;;;;;5064604;28;20205;-28
2023/04/07 14:02:22;;;;;;;1.97;1.83;;;;;;;;;;5058858;28;20208;-28
2023/04/07 14:05:09;;;;;;;2.17;1.87;;;;;;;;;;5075551;28;20227;-28
2023/04/07 14:07:42;;;;;;;3.07;1.80;;;;;;;;;;5075252;28;20213;-29
2023/04/07 14:10:32;;;;;;;1.93;1.80;;;;;;;;;;5072231;28;20197;-28
2023/04/07 14:16:34;;;;;;;2.43;2.00;;;;;;;;;;5063771;28;20226;-27
2023/04/07 14:21:59;;;;;;;4.13;2.10;;;;;;;;;;5073696;28;20239;-32
2023/04/07 14:24:38;;;;;;;4.40;2.20;;;;;;;;;;5099893;28;20220;-32
2023/04/07 14:27:32;;;;;;;2.40;2.17;;;;;;;;;;5102452;28;20204;-39
2023/04/07 14:30:18;;;;;;;4.23;2.50;;;;;;;;;;5093876;28;20209;-34
2023/04/07 14:36:19;;;;;;;3.53;2.47;;;;;;;;;;5074184;28;20236;-32
2023/04/07 14:39:00;;;;;;;3.37;2.60;;;;;;;;;;5092133;28;20216;-33
2023/04/07 14:41:35;;;;;;;6.93;3.00;;;;;;;;;;5086118;28;20211;-33
2023/04/07 14:44:09;;;;;;;6.10;2.80;;;;;;;;;;5106078;28;20215;-35
2023/04/07 14:47:08;;;;;;;4.27;2.57;;;;;;;;;;5092117;28;20209;-36
2023/04/07 14:49:55;;;;;;;3.90;2.80;;;;;;;;;;5103068;28;20201;-36
2023/04/07 15:00:24;;;;;;;5.73;3.20;;;;;;;;;;5095636;28;20220;-29
2023/04/07 15:03:12;;;;;;;5.63;3.10;;;;;;;;;;5099079;27;20224;-27
2023/04/07 15:05:56;;;;;;;2.97;2.60;;;;;;;;;;5122006;27;20195;-28
2023/04/07 15:08:30;;;;;;;2.77;2.53;;;;;;;;;;5085706;28;20208;-27
2023/04/07 15:14:03;;;;;;;2.40;2.20;;;;;;;;;;5118408;22;20248;-30
2023/04/07 15:16:42;;;;;;;3.00;2.77;;;;;;;;;;5076522;28;20257;-28
2023/04/07 15:19:21;;;;;;;3.33;2.90;;;;;;;;;;5074594;28;20211;-26
2023/04/07 15:22:13;;;;;;;4.80;2.53;;;;;;;;;;5081895;28;20277;-27
2023/04/07 15:24:53;;;;;;;2.60;2.40;;;;;;;;;;5055690;28;20236;-28
2023/04/07 15:27:34;;;;;;;3.97;2.30;;;;;;;;;;5081460;28;20205;-31
2023/04/07 15:30:22;;;;;;;4.70;2.77;;;;;;;;;;5066115;28;20197;-29
2023/04/07 15:36:18;;;;;;;4.93;4.30;;;;;;;;;;5078606;28;20372;-26
2023/04/07 15:38:55;;;;;;;3.43;2.77;;;;;;;;;;5061618;28;20209;-27
2023/04/07 15:41:37;;;;;;;5.73;2.70;;;;;;;;;;5073233;28;20267;-27
2023/04/07 15:44:13;;;;;;;2.57;2.10;;;;;;;;;;5067532;28;20243;-27
2023/04/07 15:46:40;;;;;;;5.07;2.67;;;;;;;;;;5338351;22;20285;-42
2023/04/07 15:49:07;;;;;;;4.60;3.00;;;;;;;;;;5145604;27;20845;-37
2023/04/07 15:51:34;;;;;;;3.13;2.37;;;;;;;;;;5154221;27;20206;-44
2023/04/07 15:54:03;;;;;;;2.93;2.10;;;;;;;;;;5138375;27;20223;-40
2023/04/07 15:56:30;;;;;;;4.60;2.17;;;;;;;;;;5116753;28;20231;-42
2023/04/07 15:58:58;;;;;;;4.20;2.13;;;;;;;;;;5112900;28;20238;-42
2023/04/07 16:01:25;;;;;;;3.40;2.27;;;;;;;;;;5115877;27;20208;-40
2023/04/07 16:03:52;;;;;;;3.23;2.30;;;;;;;;;;5120481;28;20231;-39
2023/04/07 16:06:19;;;;;;;2.30;2.10;;;;;;;;;;5114771;27;20298;-37
2023/04/07 16:08:47;;;;;;;2.57;2.37;;;;;;;;;;5127398;28;20203;-37
2023/04/07 16:11:15;;;;;;;3.23;2.07;;;;;;;;;;5114779;28;20253;-41
2023/04/07 16:13:42;;;;;;;10.73;2.27;;;;;;;;;;5110762;28;20342;-39
2023/04/07 16:16:09;;;;;;;3.43;1.83;;;;;;;;;;5123098;27;20219;-36
2023/04/07 16:18:37;;;;;;;4.70;2.10;;;;;;;;;;5132401;28;20264;-35
2023/04/07 16:21:07;;;;;;;2.20;2.00;;;;;;;;;;5118833;28;20255;-41
2023/04/07 16:23:34;;;;;;;1.80;1.70;;;;;;;;;;5112808;27;20228;-41
2023/04/07 16:26:01;;;;;;;2.47;2.10;;;;;;;;;;5119176;28;20195;-37
2023/04/07 16:28:30;;;;;;;3.03;2.03;;;;;;;;;;5124063;28;20195;-39
2023/04/07 16:30:57;;;;;;;3.20;1.90;;;;;;;;;;5120346;27;20204;-43
2023/04/07 16:36:27;;;;;;;4.13;1.80;;;;;;;;;;5113764;27;20741;-38
2023/04/07 16:38:56;;;;;;;2.17;1.80;;;;;;;;;;5116004;28;20195;-40
2023/04/07 16:41:23;;;;;;;3.17;1.80;;;;;;;;;;5120117;28;20677;-36
2023/04/07 16:43:52;;;;;;;3.93;2.40;;;;;;;;;;5111115;27;20238;-36
2023/04/07 16:46:19;;;;;;;3.17;1.80;;;;;;;;;;5123637;27;20196;-35
2023/04/07 16:48:47;;;;;;;7.03;2.20;;;;;;;;;;5123144;27;20204;-39
2023/04/07 16:51:16;;;;;;;2.20;1.80;;;;;;;;;;5115371;28;20714;-38
2023/04/07 16:53:43;;;;;;;3.57;2.13;;;;;;;;;;5115105;27;20215;-42
2023/04/07 16:56:15;;;;;;;2.80;1.90;;;;;;;;;;5129086;27;20311;-37
2023/04/07 16:58:43;;;;;;;2.07;1.80;;;;;;;;;;5124945;27;20199;-38
2023/04/07 17:01:11;;;;;;;6.60;3.80;;;;;;;;;;5119767;27;20202;-38
2023/04/07 17:03:38;;;;;;;4.67;2.43;;;;;;;;;;5132112;27;20227;-38
2023/04/07 17:06:06;;;;;;;4.23;2.47;;;;;;;;;;5115419;28;20202;-40
2023/04/07 17:08:35;;;;;;;5.00;2.63;;;;;;;;;;5114511;27;20251;-40
2023/04/07 17:11:06;;;;;;;5.07;2.00;;;;;;;;;;5126267;27;20204;-36
2023/04/07 17:13:33;;;;;;;3.77;1.80;;;;;;;;;;5114399;27;20240;-37
2023/04/07 17:16:01;;;;;;;2.30;1.90;;;;;;;;;;5118692;27;20307;-41
2023/04/07 17:18:30;;;;;;;2.77;1.80;;;;;;;;;;5121332;27;20211;-39
2023/04/07 17:20:57;;;;;;;2.47;1.97;;;;;;;;;;5122148;27;20208;-36
2023/04/07 17:23:24;;;;;;;1.97;1.77;;;;;;;;;;5114675;28;20245;-40
2023/04/07 17:25:51;;;;;;;1.83;1.73;;;;;;;;;;5121213;27;20200;-36
2023/04/07 17:28:18;;;;;;;2.90;1.90;;;;;;;;;;5114416;28;20206;-38
2023/04/07 17:30:46;;;;;;;3.37;1.90;;;;;;;;;;5126138;27;20572;-40
2023/04/07 17:33:13;;;;;;;2.40;2.00;;;;;;;;;;5122312;27;20275;-36
2023/04/07 17:35:41;;;;;;;4.70;2.00;;;;;;;;;;5126535;27;20256;-41
2023/04/07 17:38:08;;;;;;;3.57;2.00;;;;;;;;;;5135274;27;20656;-39
2023/04/07 17:40:35;;;;;;;2.50;2.13;;;;;;;;;;5129361;27;20210;-40
2023/04/07 17:43:03;;;;;;;3.07;2.23;;;;;;;;;;5128910;27;20219;-41
2023/04/07 17:45:32;;;;;;;4.33;2.00;;;;;;;;;;5117980;27;20204;-41
2023/04/07 17:48:02;;;;;;;2.10;2.00;;;;;;;;;;5126953;27;20290;-40
2023/04/07 17:50:29;;;;;;;4.03;2.03;;;;;;;;;;5134919;27;20263;-35
2023/04/07 17:52:59;;;;;;;3.60;2.50;;;;;;;;;;5134907;27;20227;-39
2023/04/07 17:55:26;;;;;;;3.67;2.53;;;;;;;;;;5133842;27;20226;-38
2023/04/07 17:57:59;;;;;;;3.50;3.20;;;;;;;;;;5131926;27;20200;-42
2023/04/07 18:00:26;;;;;;;3.13;2.30;;;;;;;;;;5114174;27;20229;-41
2023/04/07 18:02:54;;;;;;;3.13;2.50;;;;;;;;;;5117437;27;20224;-41
2023/04/07 18:05:21;;;;;;;3.53;2.70;;;;;;;;;;5135453;27;20195;-36
2023/04/07 18:07:48;;;;;;;4.03;2.50;;;;;;;;;;5135783;27;20282;-41